KRBD/RBD METAR and TAF weather

Enter ICAO airport designator
Station Type Date Time Source
KRBD METAR 2019/02/18 03:53 UTC NOAA

KRBD 180353Z AUTO 03005KT 10SM 06/M02 A3008 RMK AO2 SLP189 T00561022 $


Station Type Date Time Source
KRBD Decoded METAR 2019/02/18 03:53 UTC NOAA

DALLAS EXECUTIVE AIRPORT, TX, United States (KRBD) 32-41N 096-52W 203M
Feb 17, 2019 - 10:53 PM EST / 2019.02.18 0353 UTC
Wind: from the NNE (030 degrees) at 6 MPH (5 KT):0
Visibility: 10 mile(s):0
Temperature: 42.1 F (5.6 C)
Dew Point: 28.0 F (-2.2 C)
Relative Humidity: 57%
Pressure (altimeter): 30.08 in. Hg (1018 hPa)
ob: KRBD 180353Z AUTO 03005KT 10SM 06/M02 A3008 RMK AO2 SLP189 T00561022
cycle: 4

Station Type Date Time Source
KRBD TAF UTC NOAA

Error!


Example: see airport list